Time;durP1;ratioP1;P1;durP2;ratioP2;P2;SDS_P1;SDS_P2;PMS_P1;PMS_P2;Temp;Humidity;BMP_temperature;BMP_pressure;BME280_temperature;BME280_humidity;BME280_pressure;Samples;Min_cycle;Max_cycle;Signal;HPM_P1;HPM_P2
2022/07/12 00:01:54;;;;;;;2.85;1.10;;;;;;;19.90;37.89;99040.28;4501850;31;20088;-83
2022/07/12 00:04:20;;;;;;;4.25;1.10;;;;;;;19.72;38.28;99048.13;4502133;31;20478;-83
2022/07/12 00:06:46;;;;;;;2.10;0.80;;;;;;;19.77;38.15;99043.19;4502141;31;20454;-82
2022/07/12 00:09:11;;;;;;;3.10;0.95;;;;;;;19.49;38.76;99043.91;4502252;31;20435;-83
2022/07/12 00:11:37;;;;;;;3.92;1.15;;;;;;;19.53;38.66;99035.50;4501627;31;20112;-81
2022/07/12 00:14:03;;;;;;;1.80;0.88;;;;;;;19.23;39.24;99037.19;4501790;31;20092;-81
2022/07/12 00:16:29;;;;;;;4.65;1.00;;;;;;;19.18;39.45;99035.88;4487480;31;20087;-81
2022/07/12 00:18:54;;;;;;;6.25;1.25;;;;;;;19.16;39.54;99035.16;4501973;31;20114;-81
2022/07/12 00:21:20;;;;;;;4.07;0.85;;;;;;;19.13;39.59;99038.13;4501994;31;20096;-82
2022/07/12 00:23:46;;;;;;;4.75;1.20;;;;;;;19.26;39.40;99036.09;4502041;31;20487;-82
2022/07/12 00:26:11;;;;;;;2.50;0.98;;;;;;;19.18;39.64;99034.09;4503556;31;20092;-82
2022/07/12 00:28:36;;;;;;;3.37;0.80;;;;;;;19.23;39.54;99031.00;4503847;31;20345;-81
2022/07/12 00:31:03;;;;;;;2.87;0.90;;;;;;;19.24;39.67;99030.88;4503771;31;20500;-81
2022/07/12 00:33:29;;;;;;;2.45;0.60;;;;;;;18.67;40.80;99027.66;4503736;31;20140;-82
2022/07/12 00:35:54;;;;;;;2.92;0.90;;;;;;;18.98;40.39;99026.94;4489512;31;20107;-81
2022/07/12 00:38:20;;;;;;;4.45;0.90;;;;;;;19.09;40.18;99023.34;4503412;31;20111;-82
2022/07/12 00:40:45;;;;;;;2.40;0.93;;;;;;;18.93;40.63;99027.34;4489404;31;20119;-82
2022/07/12 00:43:11;;;;;;;2.72;0.80;;;;;;;19.01;40.47;99024.84;4503685;31;20084;-82
2022/07/12 00:45:36;;;;;;;3.10;0.82;;;;;;;18.99;40.62;99023.28;4503681;31;20413;-82
2022/07/12 00:48:02;;;;;;;6.87;1.10;;;;;;;19.09;40.40;99024.19;4503767;31;20114;-83
2022/07/12 00:50:27;;;;;;;3.17;0.90;;;;;;;19.02;40.62;99025.69;4488878;31;20104;-82
2022/07/12 00:52:54;;;;;;;2.25;0.80;;;;;;;19.08;40.46;99029.66;4504060;31;20112;-83
2022/07/12 00:55:22;;;;;;;5.20;1.63;;;;;;;19.21;40.32;99032.97;4489600;31;20534;-83
2022/07/12 00:57:48;;;;;;;4.05;0.90;;;;;;;19.11;40.44;99040.91;4503995;31;20456;-83
2022/07/12 01:00:16;;;;;;;2.60;0.70;;;;;;;19.00;40.76;99044.50;4503962;31;20120;-82
2022/07/12 01:02:41;;;;;;;3.58;0.80;;;;;;;19.09;40.72;99039.38;4503656;31;20435;-82
2022/07/12 01:05:08;;;;;;;4.20;1.00;;;;;;;19.15;40.56;99041.50;4489635;31;20133;-84
2022/07/12 01:07:34;;;;;;;5.37;1.20;;;;;;;19.03;40.78;99044.25;4503452;31;20106;-83
2022/07/12 01:10:00;;;;;;;2.60;0.90;;;;;;;18.91;41.08;99050.66;4503553;31;20144;-82
2022/07/12 01:12:26;;;;;;;3.65;1.08;;;;;;;19.04;40.86;99043.28;4503755;31;20185;-82
2022/07/12 01:14:51;;;;;;;4.57;1.10;;;;;;;18.94;41.07;99045.03;4503441;31;20092;-82
2022/07/12 01:17:20;;;;;;;6.03;1.00;;;;;;;18.77;41.62;99045.59;4503864;31;20113;-82
2022/07/12 01:19:46;;;;;;;5.65;1.10;;;;;;;18.71;41.78;99043.44;4503730;31;20418;-82
2022/07/12 01:22:16;;;;;;;4.55;1.08;;;;;;;18.77;41.65;99045.59;4503845;31;20112;-83
2022/07/12 01:24:42;;;;;;;5.10;0.93;;;;;;;18.71;41.83;99032.75;4503620;31;20096;-83
2022/07/12 01:27:08;;;;;;;1.85;0.93;;;;;;;18.90;41.45;99035.59;4488809;31;20100;-83
2022/07/12 01:29:34;;;;;;;3.30;1.20;;;;;;;18.80;41.74;99035.53;4503218;31;20124;-83
2022/07/12 01:34:48;;;;;;;4.18;1.00;;;;;;;18.83;41.65;99037.06;4503391;31;20485;-82
2022/07/12 01:37:14;;;;;;;3.30;0.80;;;;;;;18.93;41.55;99040.69;4503359;31;20355;-82
2022/07/12 01:39:40;;;;;;;4.65;1.10;;;;;;;18.84;41.72;99038.78;4503032;31;20104;-83
2022/07/12 01:42:05;;;;;;;3.95;1.30;;;;;;;18.34;42.88;99030.50;4503332;31;20141;-83
2022/07/12 01:44:31;;;;;;;3.72;1.17;;;;;;;18.49;42.52;99028.41;4503228;31;20088;-83
2022/07/12 01:46:58;;;;;;;4.35;1.10;;;;;;;18.46;42.57;99027.66;4503382;31;20153;-82
2022/07/12 01:49:24;;;;;;;3.42;1.10;;;;;;;18.60;42.29;99026.50;4488851;31;20112;-84
2022/07/12 01:51:49;;;;;;;2.85;0.95;;;;;;;18.64;42.15;99029.78;4502936;31;20114;-83
2022/07/12 01:54:15;;;;;;;4.18;1.10;;;;;;;18.63;42.17;99023.56;4503259;31;20096;-82
2022/07/12 01:56:41;;;;;;;3.37;1.00;;;;;;;18.52;42.45;99017.44;4475638;31;20099;-83
2022/07/12 01:59:07;;;;;;;4.45;0.90;;;;;;;18.52;42.23;99023.63;4488996;31;20160;-85
2022/07/12 02:01:32;;;;;;;2.60;0.70;;;;;;;18.43;42.33;99017.25;4503130;31;20126;-84
2022/07/12 02:04:03;;;;;;;3.62;0.85;;;;;;;18.35;42.53;99025.06;4502844;31;20111;-83
2022/07/12 02:06:29;;;;;;;3.75;0.90;;;;;;;18.45;42.29;99020.63;4489103;31;20088;-83
2022/07/12 02:08:54;;;;;;;2.45;0.70;;;;;;;18.71;41.68;99022.94;4488692;31;20146;-83
2022/07/12 02:11:20;;;;;;;4.62;0.73;;;;;;;18.49;42.09;99018.56;4502872;31;20161;-83
2022/07/12 02:13:45;;;;;;;4.12;1.00;;;;;;;18.31;42.53;99026.28;4488789;31;20107;-84
2022/07/12 02:16:10;;;;;;;3.42;0.80;;;;;;;18.39;42.36;99020.31;4502715;31;20092;-84
2022/07/12 02:18:36;;;;;;;1.35;0.60;;;;;;;18.32;42.50;99019.13;4475626;31;20186;-83
2022/07/12 02:21:02;;;;;;;2.45;0.73;;;;;;;18.34;42.48;99025.16;4503184;31;20100;-83
2022/07/12 02:23:27;;;;;;;2.17;0.70;;;;;;;18.35;42.46;99019.72;4488668;31;20084;-83
2022/07/12 02:25:52;;;;;;;2.58;0.88;;;;;;;18.40;42.34;99017.50;4503014;31;20102;-83
2022/07/12 02:28:18;;;;;;;2.62;0.80;;;;;;;18.30;42.69;99019.25;4488113;31;20096;-83
2022/07/12 02:30:43;;;;;;;3.25;0.80;;;;;;;18.33;42.69;99018.13;4502919;31;20140;-83
2022/07/12 02:33:09;;;;;;;2.67;0.88;;;;;;;18.32;42.71;99019.97;4488573;31;20111;-83
2022/07/12 02:35:34;;;;;;;3.10;0.80;;;;;;;18.31;42.73;99020.94;4502856;31;20084;-82
2022/07/12 02:38:00;;;;;;;1.20;0.70;;;;;;;18.12;43.18;99020.75;4502976;31;20084;-82
2022/07/12 02:43:09;;;;;;;3.75;1.00;;;;;;;17.93;43.78;99021.44;4503115;31;20147;-83
2022/07/12 02:45:35;;;;;;;2.62;0.80;;;;;;;17.97;43.74;99030.88;4502736;31;20419;-82
2022/07/12 02:48:00;;;;;;;2.95;0.70;;;;;;;18.03;43.65;99025.03;4502204;31;20096;-82
2022/07/12 02:50:26;;;;;;;2.42;0.82;;;;;;;18.06;43.68;99030.12;4503066;31;20171;-83
2022/07/12 02:52:51;;;;;;;1.62;0.70;;;;;;;18.07;43.65;99035.31;4502776;31;20378;-82
2022/07/12 02:55:17;;;;;;;2.10;0.88;;;;;;;18.00;43.88;99033.25;4488580;31;20084;-81
2022/07/12 02:57:42;;;;;;;3.10;0.80;;;;;;;18.05;43.71;99033.75;4502805;31;20525;-81
2022/07/12 03:00:08;;;;;;;2.10;0.80;;;;;;;17.88;44.20;99041.28;4488415;31;20471;-84
2022/07/12 03:02:34;;;;;;;3.35;0.80;;;;;;;17.86;44.18;99040.56;4502772;31;20080;-83
2022/07/12 03:05:00;;;;;;;1.20;0.60;;;;;;;17.92;44.11;99038.38;4502348;31;20088;-84
2022/07/12 03:07:25;;;;;;;1.90;0.80;;;;;;;18.10;43.60;99033.34;4502792;31;20159;-82
2022/07/12 03:09:51;;;;;;;3.62;1.00;;;;;;;18.29;43.24;99041.53;4502733;31;20452;-82
2022/07/12 03:12:16;;;;;;;1.83;0.62;;;;;;;18.36;43.08;99034.72;4502600;31;20180;-83
2022/07/12 03:14:44;;;;;;;5.05;1.00;;;;;;;18.37;43.11;99048.91;4502668;31;20415;-82
2022/07/12 03:17:10;;;;;;;2.45;0.70;;;;;;;18.26;43.43;99039.97;4502466;31;20108;-83
2022/07/12 03:19:35;;;;;;;2.30;0.70;;;;;;;18.34;43.25;99038.50;4502580;31;20092;-83
2022/07/12 03:22:01;;;;;;;3.62;0.90;;;;;;;18.38;43.09;99031.94;4488271;31;20465;-82
2022/07/12 03:24:26;;;;;;;3.53;0.95;;;;;;;18.33;43.24;99042.13;4502656;31;20119;-82
2022/07/12 03:26:51;;;;;;;3.30;1.00;;;;;;;18.12;43.77;99036.75;4502515;31;20092;-82
2022/07/12 03:29:17;;;;;;;1.95;0.70;;;;;;;18.09;43.89;99045.84;4487883;31;20108;-83
2022/07/12 03:31:42;;;;;;;2.58;0.70;;;;;;;18.01;44.13;99042.97;4502512;31;20103;-83
2022/07/12 03:34:08;;;;;;;3.15;1.02;;;;;;;18.37;43.45;99046.22;4502528;31;20389;-83
2022/07/12 03:36:33;;;;;;;3.17;0.90;;;;;;;18.36;43.47;99045.41;4502469;31;20122;-82
2022/07/12 03:38:59;;;;;;;3.85;0.90;;;;;;;18.20;43.87;99047.66;4502519;31;20096;-83
2022/07/12 03:41:24;;;;;;;3.72;1.00;;;;;;;18.23;43.91;99048.25;4502125;31;20134;-83
2022/07/12 03:43:49;;;;;;;3.87;0.93;;;;;;;18.45;43.48;99046.47;4502407;31;20088;-83
2022/07/12 03:46:15;;;;;;;3.53;1.02;;;;;;;18.53;43.31;99045.84;4502461;31;20096;-83
2022/07/12 03:48:40;;;;;;;3.28;0.85;;;;;;;18.70;42.99;99045.28;4502317;31;20088;-83
2022/07/12 03:51:06;;;;;;;4.05;0.98;;;;;;;18.73;42.85;99036.16;4502313;31;20115;-83
2022/07/12 03:53:31;;;;;;;1.52;0.70;;;;;;;18.66;43.21;99035.81;4501884;31;20122;-82
2022/07/12 03:55:56;;;;;;;2.78;0.75;;;;;;;18.76;42.93;99038.56;4502273;31;20497;-84
2022/07/12 03:58:22;;;;;;;4.12;0.93;;;;;;;18.89;42.77;99039.25;4502216;31;20092;-83
2022/07/12 04:00:47;;;;;;;4.12;1.08;;;;;;;19.13;42.41;99038.13;4488117;31;20100;-83
2022/07/12 04:03:13;;;;;;;2.78;0.73;;;;;;;19.24;42.16;99044.22;4502411;31;20144;-82
2022/07/12 04:05:38;;;;;;;2.80;0.75;;;;;;;19.09;42.21;99042.03;4501935;31;20122;-82
2022/07/12 04:08:04;;;;;;;4.90;1.30;;;;;;;19.38;42.14;99036.84;4502015;31;20429;-82
2022/07/12 04:10:30;;;;;;;3.60;1.00;;;;;;;19.52;41.44;99038.31;4502112;31;20088;-82
2022/07/12 04:12:55;;;;;;;7.57;1.08;;;;;;;19.61;41.09;99045.53;4501892;31;20363;-82
2022/07/12 04:15:21;;;;;;;3.28;1.00;;;;;;;19.60;41.17;99033.13;4501925;31;20150;-82
2022/07/12 04:17:47;;;;;;;4.10;0.88;;;;;;;19.20;42.25;99041.94;4501724;31;20168;-82
2022/07/12 04:20:12;;;;;;;4.72;1.25;;;;;;;19.38;41.75;99048.37;4501960;31;20088;-83
2022/07/12 04:22:38;;;;;;;3.37;0.98;;;;;;;18.88;42.81;99053.56;4487534;31;20145;-84
2022/07/12 04:25:05;;;;;;;2.45;0.80;;;;;;;19.02;42.58;99061.22;4501736;31;20144;-82
2022/07/12 04:27:31;;;;;;;5.07;0.93;;;;;;;19.27;42.13;99058.28;4474192;31;20112;-82
2022/07/12 04:29:56;;;;;;;3.45;0.90;;;;;;;19.04;42.51;99055.75;4501384;31;20115;-83
2022/07/12 04:32:21;;;;;;;4.60;0.85;;;;;;;19.47;41.78;99051.22;4501645;31;20088;-82
2022/07/12 04:34:47;;;;;;;2.62;0.70;;;;;;;19.35;41.93;99059.31;4501700;31;20092;-83
2022/07/12 04:37:13;;;;;;;3.17;0.85;;;;;;;19.49;41.67;99058.13;4487334;31;20092;-82
2022/07/12 04:39:38;;;;;;;3.17;0.70;;;;;;;19.91;40.93;99050.00;4487184;31;20122;-82
2022/07/12 04:42:04;;;;;;;2.80;0.90;;;;;;;19.98;41.01;99043.13;4501273;31;20333;-82
2022/07/12 04:44:29;;;;;;;2.87;0.82;;;;;;;19.67;41.17;99052.16;4487265;31;20130;-80
2022/07/12 04:46:55;;;;;;;4.60;1.20;;;;;;;20.01;40.71;99044.66;4501564;31;20092;-79
2022/07/12 04:49:20;;;;;;;1.52;0.60;;;;;;;20.40;39.80;99050.09;4487210;31;20454;-79
2022/07/12 04:51:46;;;;;;;4.53;0.93;;;;;;;20.68;39.25;99048.41;4501212;31;20118;-80
2022/07/12 04:54:11;;;;;;;2.50;0.70;;;;;;;20.83;38.71;99039.97;4501058;31;20134;-79
2022/07/12 04:56:37;;;;;;;3.12;0.80;;;;;;;20.62;38.87;99041.78;4487100;31;20404;-80
2022/07/12 04:59:02;;;;;;;3.60;0.88;;;;;;;20.62;38.90;99039.13;4501273;31;20115;-80
2022/07/12 05:01:29;;;;;;;3.12;0.90;;;;;;;20.94;38.25;99032.63;4501300;31;20089;-78
2022/07/12 05:03:55;;;;;;;3.17;0.88;;;;;;;20.81;38.59;99042.78;4473730;31;20128;-81
2022/07/12 05:06:20;;;;;;;3.35;0.80;;;;;;;20.59;38.92;99036.75;4501083;31;20122;-82
2022/07/12 05:08:46;;;;;;;3.60;0.95;;;;;;;20.69;38.74;99027.88;4501282;31;20089;-80
2022/07/12 05:11:11;;;;;;;4.22;0.90;;;;;;;20.73;38.81;99031.94;4503138;31;20151;-79
2022/07/12 05:13:37;;;;;;;2.65;0.80;;;;;;;20.88;38.55;99032.31;4503794;31;20160;-80
2022/07/12 05:16:02;;;;;;;2.87;0.80;;;;;;;21.03;38.41;99038.91;4496308;31;20398;-78
2022/07/12 05:18:28;;;;;;;1.95;0.70;;;;;;;20.71;39.04;99041.94;4491753;31;20084;-79
2022/07/12 05:20:53;;;;;;;3.53;0.90;;;;;;;21.33;37.97;99043.22;4467860;31;20107;-79
2022/07/12 05:23:19;;;;;;;4.18;0.85;;;;;;;21.48;37.95;99045.44;4491958;31;20138;-79
2022/07/12 05:25:45;;;;;;;2.22;0.60;;;;;;;21.72;37.09;99042.25;4492004;31;20415;-79
2022/07/12 05:28:11;;;;;;;3.53;0.90;;;;;;;21.66;37.10;99035.66;4479194;31;20087;-78
2022/07/12 05:30:36;;;;;;;2.47;0.70;;;;;;;21.81;37.23;99038.69;4491355;31;20184;-79
2022/07/12 05:33:02;;;;;;;4.03;0.70;;;;;;;21.60;37.09;99045.12;4492323;31;20104;-78
2022/07/12 05:35:27;;;;;;;5.97;0.82;;;;;;;21.77;36.80;99040.81;4492749;31;20127;-80
2022/07/12 05:37:53;;;;;;;2.35;0.50;;;;;;;21.75;37.05;99044.62;4491079;31;20491;-79
2022/07/12 05:40:18;;;;;;;4.45;1.20;;;;;;;21.98;36.80;99045.94;4492488;31;20467;-79
2022/07/12 05:42:44;;;;;;;2.83;0.70;;;;;;;22.03;36.43;99048.13;4491815;31;20092;-80
2022/07/12 05:45:10;;;;;;;3.50;0.90;;;;;;;21.97;36.78;99052.28;4495774;31;20135;-80
2022/07/12 05:47:35;;;;;;;3.25;0.93;;;;;;;22.49;36.09;99048.97;4500133;31;20103;-78
2022/07/12 05:50:01;;;;;;;3.78;0.80;;;;;;;22.76;35.59;99044.53;4485845;31;20088;-78
2022/07/12 05:55:10;;;;;;;3.47;0.90;;;;;;;22.34;35.33;99058.56;4500002;31;20118;-77
2022/07/12 05:57:36;;;;;;;2.70;0.80;;;;;;;22.54;35.48;99054.75;4500182;31;20491;-75
2022/07/12 06:00:03;;;;;;;4.22;0.90;;;;;;;22.48;35.53;99060.69;4481657;31;20084;-74
2022/07/12 06:02:29;;;;;;;1.98;0.57;;;;;;;22.41;35.35;99048.91;4480724;31;20100;-75
2022/07/12 06:04:54;;;;;;;2.85;0.82;;;;;;;22.73;34.67;99067.12;4486069;31;20179;-76
2022/07/12 06:07:19;;;;;;;2.58;0.70;;;;;;;22.86;34.38;99045.25;4479114;31;20084;-76
2022/07/12 06:09:45;;;;;;;2.92;0.93;;;;;;;22.80;34.62;99045.06;4486581;31;20104;-75
2022/07/12 06:12:10;;;;;;;3.85;0.80;;;;;;;22.75;34.75;99048.19;4485484;31;20407;-76
2022/07/12 06:14:36;;;;;;;4.30;0.98;;;;;;;22.56;34.75;99047.38;4486726;31;20096;-77
2022/07/12 06:17:02;;;;;;;3.70;0.80;;;;;;;22.61;34.60;99054.13;4487424;31;20110;-79
2022/07/12 06:19:27;;;;;;;4.57;0.70;;;;;;;22.86;34.47;99049.81;4485810;32;20096;-78
2022/07/12 06:21:53;;;;;;;2.72;0.70;;;;;;;22.74;34.42;99049.22;4486142;31;20093;-77
2022/07/12 06:24:18;;;;;;;4.00;0.90;;;;;;;23.00;33.90;99046.53;4487317;31;20092;-77
2022/07/12 06:26:43;;;;;;;6.45;0.90;;;;;;;23.32;33.66;99048.63;4486003;32;20487;-77
2022/07/12 06:29:09;;;;;;;3.55;0.80;;;;;;;23.39;33.45;99038.06;4487227;31;20089;-78
2022/07/12 06:31:34;;;;;;;5.95;0.90;;;;;;;23.92;32.58;99037.00;4486717;31;20092;-78
2022/07/12 06:34:00;;;;;;;3.62;1.05;;;;;;;23.97;32.61;99047.28;4486003;32;20360;-77
2022/07/12 06:36:25;;;;;;;3.05;0.80;;;;;;;24.07;32.40;99042.59;4485998;32;20084;-78
2022/07/12 06:38:51;;;;;;;5.07;0.75;;;;;;;24.39;31.87;99043.66;4487091;31;20391;-77
2022/07/12 06:41:16;;;;;;;3.80;0.75;;;;;;;24.09;31.46;99054.03;4487154;31;20150;-79
2022/07/12 06:43:42;;;;;;;3.67;0.80;;;;;;;23.73;32.19;99045.31;4486798;31;20466;-78
2022/07/12 06:46:07;;;;;;;5.40;0.90;;;;;;;23.52;32.73;99046.56;4487139;31;20110;-78
2022/07/12 06:48:33;;;;;;;5.93;1.40;;;;;;;23.38;33.08;99049.84;4487157;31;20114;-78
2022/07/12 06:50:58;;;;;;;4.18;0.93;;;;;;;23.69;32.54;99044.78;4486987;31;20114;-78
2022/07/12 06:53:24;;;;;;;2.53;0.88;;;;;;;23.56;32.78;99047.06;4485679;32;20117;-77
2022/07/12 06:55:50;;;;;;;4.82;0.80;;;;;;;23.67;32.89;99052.19;4486702;31;20118;-77
2022/07/12 06:58:16;;;;;;;3.35;0.77;;;;;;;23.25;33.10;99050.25;4485730;32;20088;-78
2022/07/12 07:00:42;;;;;;;4.87;0.93;;;;;;;23.35;33.08;99037.56;4487017;31;20089;-77
2022/07/12 07:03:08;;;;;;;4.35;1.05;;;;;;;23.48;32.91;99057.78;4486972;31;20088;-78
2022/07/12 07:05:34;;;;;;;3.67;0.90;;;;;;;23.77;32.34;99062.81;4486915;31;20087;-78
2022/07/12 07:07:59;;;;;;;3.60;0.90;;;;;;;23.45;32.65;99047.34;4486437;31;20131;-78
2022/07/12 07:10:25;;;;;;;5.68;1.12;;;;;;;23.20;33.13;99062.50;4486791;31;20092;-76
2022/07/12 07:12:50;;;;;;;4.03;1.17;;;;;;;23.20;32.53;99051.75;4486646;31;20084;-77
2022/07/12 07:15:16;;;;;;;5.30;0.90;;;;;;;23.61;31.92;99047.44;4486788;32;20084;-77
2022/07/12 07:17:42;;;;;;;6.50;1.10;;;;;;;23.46;32.51;99052.56;4486903;31;20405;-77
2022/07/12 07:20:11;;;;;;;2.80;1.00;;;;;;;23.36;32.75;99049.16;4486632;31;20451;-77
2022/07/12 07:22:37;;;;;;;2.95;0.90;;;;;;;23.39;32.90;99054.19;4486833;31;20119;-78
2022/07/12 07:25:03;;;;;;;2.90;0.90;;;;;;;23.28;33.06;99060.72;4486858;31;20100;-77
2022/07/12 07:27:29;;;;;;;6.35;1.00;;;;;;;23.46;32.98;99059.81;4486583;31;20080;-78
2022/07/12 07:32:38;;;;;;;6.37;1.10;;;;;;;23.47;32.58;99062.34;4486080;32;20152;-79
2022/07/12 07:35:05;;;;;;;3.62;0.95;;;;;;;23.18;33.13;99065.34;4486716;31;20468;-77
2022/07/12 07:37:31;;;;;;;4.95;0.85;;;;;;;23.22;33.11;99055.09;4486702;31;20089;-76
2022/07/12 07:39:57;;;;;;;2.37;0.98;;;;;;;23.24;32.92;99059.34;4486738;31;20127;-77
2022/07/12 07:42:22;;;;;;;3.90;1.00;;;;;;;23.26;33.23;99057.34;4485409;32;20100;-78
2022/07/12 07:44:48;;;;;;;3.67;0.82;;;;;;;23.30;33.27;99063.25;4485029;32;20393;-78
2022/07/12 07:47:13;;;;;;;4.53;0.88;;;;;;;23.23;33.99;99057.66;4486617;32;20115;-77
2022/07/12 07:49:38;;;;;;;3.40;1.10;;;;;;;23.73;32.96;99054.22;4486416;31;20481;-77
2022/07/12 07:52:04;;;;;;;4.43;0.80;;;;;;;24.05;32.20;99050.00;4486529;31;20080;-77
2022/07/12 07:54:29;;;;;;;3.70;0.90;;;;;;;24.11;31.93;99052.03;4485318;32;20159;-78
2022/07/12 07:56:55;;;;;;;6.15;1.02;;;;;;;23.72;32.03;99055.22;4484951;32;20364;-76
2022/07/12 07:59:20;;;;;;;3.15;0.93;;;;;;;23.96;31.81;99069.81;4486344;31;20097;-80
2022/07/12 08:01:46;;;;;;;3.95;0.80;;;;;;;23.86;31.96;99061.03;4486280;31;20368;-78
2022/07/12 08:04:12;;;;;;;3.00;0.90;;;;;;;24.12;31.69;99058.25;4486254;31;20111;-80
2022/07/12 08:06:39;;;;;;;4.17;0.90;;;;;;;24.03;31.55;99064.59;4486366;31;20503;-78
2022/07/12 08:09:05;;;;;;;6.35;1.15;;;;;;;24.02;31.69;99073.72;4486067;31;20142;-78
2022/07/12 08:11:31;;;;;;;3.75;0.90;;;;;;;24.30;31.51;99069.75;4484690;32;20122;-78
2022/07/12 08:13:56;;;;;;;3.40;0.75;;;;;;;24.31;30.86;99066.03;4486617;31;20053;-78
2022/07/12 08:16:21;;;;;;;6.53;1.33;;;;;;;24.26;31.33;99065.72;4486407;32;20137;-77
2022/07/12 08:18:47;;;;;;;5.10;1.10;;;;;;;24.30;31.38;99064.37;4486396;31;20160;-79
2022/07/12 08:21:12;;;;;;;3.40;0.93;;;;;;;24.20;31.55;99060.12;4486179;31;20081;-78
2022/07/12 08:23:38;;;;;;;2.20;0.70;;;;;;;24.61;30.62;99057.53;4486003;31;20076;-79
2022/07/12 08:26:03;;;;;;;1.98;0.88;;;;;;;24.74;30.65;99049.78;4484913;32;20364;-79
2022/07/12 08:28:29;;;;;;;6.97;1.00;;;;;;;24.66;30.12;99065.94;4486154;31;20105;-79
2022/07/12 08:30:54;;;;;;;6.10;1.10;;;;;;;24.90;30.27;99057.03;4485995;31;20100;-79
2022/07/12 08:33:19;;;;;;;7.75;1.08;;;;;;;24.82;29.47;99044.41;4485682;31;20130;-80
2022/07/12 08:35:45;;;;;;;3.28;0.90;;;;;;;25.15;29.46;99052.47;4485852;31;20387;-78
2022/07/12 08:38:10;;;;;;;2.45;0.90;;;;;;;24.72;29.93;99058.06;4485902;31;20111;-79
2022/07/12 08:40:36;;;;;;;3.35;0.90;;;;;;;24.59;30.16;99048.75;4485874;31;20080;-79
2022/07/12 08:43:02;;;;;;;5.57;0.90;;;;;;;24.47;30.04;99059.00;4485902;32;20115;-78
2022/07/12 08:45:28;;;;;;;3.85;1.00;;;;;;;24.67;30.09;99052.31;4472179;32;20080;-78
2022/07/12 08:47:53;;;;;;;3.22;0.90;;;;;;;24.67;29.95;99038.84;4488013;31;20112;-78
2022/07/12 08:50:21;;;;;;;4.05;0.90;;;;;;;24.84;30.04;99038.84;4486705;32;20119;-79
2022/07/12 08:52:54;;;;;;;6.87;1.10;;;;;;;24.91;29.92;99040.69;4486761;32;20096;-78
2022/07/12 08:55:32;;;;;;;15.82;2.03;;;;;;;24.97;30.09;99049.13;4487834;31;20072;-79
2022/07/12 08:57:59;;;;;;;7.97;1.23;;;;;;;24.84;29.67;99047.78;4487767;31;20729;-78
2022/07/12 09:00:25;;;;;;;;;;;;;;;25.00;30.15;99044.22;4488283;31;20173;-79
2022/07/12 09:02:53;;;;;;;3.75;0.85;;;;;;;25.09;29.98;99036.94;4487968;31;19972;-78
2022/07/12 09:05:27;;;;;;;5.47;0.90;;;;;;;25.01;29.09;99045.91;4486587;32;20436;-78
2022/07/12 09:08:02;;;;;;;3.47;0.90;;;;;;;25.39;28.93;99042.69;4488203;31;20085;-79
2022/07/12 09:10:28;;;;;;;5.60;1.30;;;;;;;25.25;29.06;99052.31;4486621;32;20119;-78
2022/07/12 09:12:53;;;;;;;5.57;1.10;;;;;;;25.50;28.58;99040.44;4487432;31;20092;-79
2022/07/12 09:15:21;;;;;;;8.02;1.00;;;;;;;25.54;28.26;99035.53;4486565;32;20118;-78
2022/07/12 09:17:54;;;;;;;;;;;;;;;25.76;27.98;99039.31;4488008;31;20116;-80
2022/07/12 09:20:20;;;;;;;2.90;0.80;;;;;;;25.67;28.27;99040.37;4486800;32;20397;-79
2022/07/12 09:22:57;;;;;;;3.12;1.00;;;;;;;25.92;28.07;99040.31;4487348;31;20109;-79
2022/07/12 09:25:22;;;;;;;2.62;0.70;;;;;;;25.84;28.03;99035.75;4486875;32;20115;-79
2022/07/12 09:27:51;;;;;;;4.97;0.98;;;;;;;25.98;27.84;99034.19;4486576;32;20432;-77
2022/07/12 09:30:16;;;;;;;4.45;1.00;;;;;;;25.76;27.90;99041.19;4486435;32;20468;-79
2022/07/12 09:38:26;;;;;;;3.92;0.80;;;;;;;25.78;28.13;99026.50;4487716;32;20120;-79
2022/07/12 09:40:53;;;;;;;4.68;0.90;;;;;;;25.92;27.35;99041.13;4486574;32;20126;-78
2022/07/12 09:43:19;;;;;;;5.25;1.00;;;;;;;25.87;27.15;99038.13;4487630;31;20139;-78
2022/07/12 09:45:47;;;;;;;5.05;0.98;;;;;;;26.16;27.30;99042.88;4486322;32;20115;-79
2022/07/12 09:48:12;;;;;;;;;;;;;;;26.02;26.90;99035.50;4487729;31;20100;-79
2022/07/12 09:50:38;;;;;;;3.78;0.80;;;;;;;26.35;26.36;99035.31;4487771;31;20253;-78
2022/07/12 09:53:05;;;;;;;5.43;0.80;;;;;;;26.30;26.71;99027.75;4486627;32;20084;-78
2022/07/12 09:55:33;;;;;;;3.90;0.90;;;;;;;26.49;26.19;99027.28;4486327;32;20475;-78
2022/07/12 09:58:00;;;;;;;8.95;0.93;;;;;;;26.26;26.51;99021.03;4487701;31;20452;-78
2022/07/12 10:00:26;;;;;;;4.10;0.90;;;;;;;25.95;26.37;99037.25;4487339;31;20092;-79
2022/07/12 10:02:54;;;;;;;4.05;1.08;;;;;;;25.94;26.46;99025.63;4487767;31;20226;-77
2022/07/12 10:05:21;;;;;;;6.87;0.90;;;;;;;25.92;26.33;99034.91;4486606;32;20092;-78
2022/07/12 10:07:46;;;;;;;5.53;1.00;;;;;;;26.00;26.71;99024.91;4486083;32;20108;-79
2022/07/12 10:10:12;;;;;;;3.53;1.00;;;;;;;26.33;26.25;99024.72;4472980;32;20143;-77
2022/07/12 10:12:39;;;;;;;3.37;0.88;;;;;;;26.21;25.71;99016.19;4485625;32;20100;-78
2022/07/12 10:15:10;;;;;;;;;;;;;;;26.49;25.89;99031.84;4486749;32;20391;-79
2022/07/12 10:17:35;;;;;;;3.60;1.10;;;;;;;26.51;25.43;99024.41;4486415;32;19987;-79
2022/07/12 10:20:18;;;;;;;2.67;0.98;;;;;;;26.79;25.22;99010.34;4487533;31;20114;-78
2022/07/12 10:22:44;;;;;;;3.22;0.88;;;;;;;26.86;25.58;99014.00;4487064;31;20127;-79
2022/07/12 10:25:31;;;;;;;3.58;0.90;;;;;;;27.00;25.27;99015.06;4487520;31;20084;-78
2022/07/12 10:28:00;;;;;;;3.35;0.90;;;;;;;26.71;25.83;99011.25;4487342;32;20088;-79
2022/07/12 10:30:26;;;;;;;4.87;0.98;;;;;;;26.99;25.46;99008.00;4485964;32;20156;-80
2022/07/12 10:32:56;;;;;;;3.87;1.10;;;;;;;26.98;25.96;99009.00;4486380;32;20088;-78
2022/07/12 10:35:23;;;;;;;8.15;1.10;;;;;;;27.04;25.30;99013.66;4486129;32;20112;-79
2022/07/12 10:38:10;;;;;;;4.70;1.25;;;;;;;26.86;25.88;99005.91;4487340;31;20101;-77
2022/07/12 10:40:36;;;;;;;3.95;0.98;;;;;;;26.77;26.26;99015.97;4487182;32;20136;-78
2022/07/12 10:43:03;;;;;;;3.58;1.02;;;;;;;26.73;26.16;99011.09;4486367;32;20337;-78
2022/07/12 10:45:38;;;;;;;4.43;1.08;;;;;;;26.64;26.58;99013.03;4487140;31;20367;-79
2022/07/12 10:48:04;;;;;;;6.37;1.20;;;;;;;27.03;26.46;98996.59;4486900;32;20415;-78
2022/07/12 10:50:44;;;;;;;3.40;0.95;;;;;;;26.85;26.48;99002.37;4487056;31;20093;-79
2022/07/12 10:53:19;;;;;;;7.57;0.90;;;;;;;26.35;27.36;99025.37;4487244;31;20122;-77
2022/07/12 10:56:03;;;;;;;7.87;0.90;;;;;;;25.93;28.49;99032.03;4486914;31;20561;-78
2022/07/12 10:58:47;;;;;;;8.80;1.55;;;;;;;25.66;30.07;99053.03;4487106;31;20164;-79
2022/07/12 11:01:14;;;;;;;5.80;1.00;;;;;;;25.78;35.56;99045.38;4486739;32;20088;-78
2022/07/12 11:03:47;;;;;;;;;;;;;;;25.47;36.59;99040.78;4487139;31;20085;-79
2022/07/12 11:06:14;;;;;;;6.00;1.23;;;;;;;25.42;35.96;99036.91;4487121;31;20006;-78
2022/07/12 11:08:53;;;;;;;;;;;;;;;25.47;33.87;99045.34;4486823;31;20109;-80
2022/07/12 11:11:19;;;;;;;4.63;0.80;;;;;;;25.79;33.29;99040.84;4485778;32;20000;-80
2022/07/12 11:13:45;;;;;;;5.00;1.00;;;;;;;25.67;33.82;99033.13;4487114;31;20106;-79
2022/07/12 11:16:11;;;;;;;3.20;0.98;;;;;;;25.57;32.83;99021.69;4485680;32;20132;-80
2022/07/12 11:18:37;;;;;;;3.22;0.90;;;;;;;25.63;32.06;99028.25;4486943;31;20108;-79
2022/07/12 11:21:03;;;;;;;5.28;1.00;;;;;;;25.35;32.34;99036.78;4485637;32;20092;-80
2022/07/12 11:23:29;;;;;;;7.75;1.20;;;;;;;25.56;32.38;99029.97;4481889;32;20115;-79
2022/07/12 11:25:56;;;;;;;3.70;1.10;;;;;;;25.56;31.99;99025.41;4486785;32;20523;-79
2022/07/12 11:28:23;;;;;;;4.60;1.30;;;;;;;25.73;32.26;99020.81;4487196;32;20169;-79
2022/07/12 11:30:50;;;;;;;;;;;;;;;25.92;31.98;99005.22;4485864;32;20180;-78
2022/07/12 11:33:15;;;;;;;4.20;1.10;;;;;;;26.24;31.47;99001.47;4472586;32;19972;-79
2022/07/12 11:35:43;;;;;;;3.85;0.90;;;;;;;26.36;31.21;99004.59;4486620;32;20103;-79
2022/07/12 11:38:08;;;;;;;4.12;1.08;;;;;;;26.29;30.42;98986.41;4485329;32;20104;-79
2022/07/12 11:40:34;;;;;;;4.70;0.90;;;;;;;26.02;30.08;98985.09;4472405;32;20092;-79
2022/07/12 11:43:00;;;;;;;3.55;0.95;;;;;;;26.22;28.54;98981.91;4486707;32;20084;-79
2022/07/12 11:45:27;;;;;;;3.17;0.73;;;;;;;26.00;27.70;98987.13;4486761;32;20088;-78
2022/07/12 11:47:54;;;;;;;3.22;0.80;;;;;;;25.84;27.18;98984.47;4486476;32;20093;-79